createdAt,value
2023-11-23T00:02:15.330Z,102323.03
2023-11-23T00:04:54.755Z,102323.28
2023-11-23T00:07:21.641Z,102326.63
2023-11-23T00:09:48.381Z,102325.66
2023-11-23T00:12:15.830Z,102323.88
2023-11-23T00:14:47.433Z,102323.03
2023-11-23T00:17:16.960Z,102322.66
2023-11-23T00:19:50.333Z,102325.41
2023-11-23T00:22:19.768Z,102318.50
2023-11-23T00:24:49.704Z,102318.34
2023-11-23T00:27:16.607Z,102312.38
2023-11-23T00:29:44.946Z,102302.91
2023-11-23T00:32:13.466Z,102306.38
2023-11-23T00:34:51.635Z,102310.09
2023-11-23T00:37:18.647Z,102299.78
2023-11-23T00:39:47.607Z,102304.22
2023-11-23T00:42:16.703Z,102306.25
2023-11-23T00:44:49.663Z,102305.53
2023-11-23T00:47:17.850Z,102304.84
2023-11-23T00:49:49.917Z,102302.06
2023-11-23T00:52:17.659Z,102290.72
2023-11-23T00:54:55.016Z,102281.72
2023-11-23T00:57:22.289Z,102281.13
2023-11-23T00:59:49.155Z,102285.56
2023-11-23T01:02:16.138Z,102283.88
2023-11-23T01:04:46.478Z,102290.94
2023-11-23T01:07:13.514Z,102276.91
2023-11-23T01:09:40.262Z,102278.84
2023-11-23T01:12:10.118Z,102280.28
2023-11-23T01:14:37.466Z,102274.75
2023-11-23T01:17:04.870Z,102280.03
2023-11-23T01:19:31.718Z,102272.97
2023-11-23T01:21:58.443Z,102280.88
2023-11-23T01:24:25.181Z,102279.06
2023-11-23T01:26:51.981Z,102270.34
2023-11-23T01:29:20.429Z,102279.06
2023-11-23T01:31:47.204Z,102270.09
2023-11-23T01:34:14.133Z,102265.31
2023-11-23T01:36:40.996Z,102276.06
2023-11-23T01:39:08.706Z,102272.50
2023-11-23T01:41:35.553Z,102273.44
2023-11-23T01:44:02.275Z,102273.69
2023-11-23T01:46:28.994Z,102269.38
2023-11-23T01:48:56.927Z,102265.91
2023-11-23T01:51:24.142Z,102266.16
2023-11-23T01:53:51.453Z,102262.69
2023-11-23T01:56:19.990Z,102274.06
2023-11-23T01:58:46.781Z,102277.66
2023-11-23T02:01:14.104Z,102267.94
2023-11-23T02:03:41.176Z,102270.47
2023-11-23T02:06:08.191Z,102272.97
2023-11-23T02:08:36.862Z,102271.44
2023-11-23T02:11:03.903Z,102268.69
2023-11-23T02:13:32.177Z,102278.00
2023-11-23T02:15:59.000Z,102271.66
2023-11-23T02:18:25.900Z,102276.56
2023-11-23T02:20:53.131Z,102272.84
2023-11-23T02:23:19.978Z,102275.25
2023-11-23T02:25:46.849Z,102268.75
2023-11-23T02:28:13.892Z,102266.59
2023-11-23T02:30:40.688Z,102270.81
2023-11-23T02:33:09.836Z,102272.97
2023-11-23T02:35:36.693Z,102273.44
2023-11-23T02:38:04.060Z,102271.38
2023-11-23T02:40:30.830Z,102268.38
2023-11-23T02:42:57.821Z,102262.88
2023-11-23T02:45:24.749Z,102268.59
2023-11-23T02:47:51.747Z,102252.41
2023-11-23T02:50:18.585Z,102251.94
2023-11-23T02:52:45.490Z,102257.56
2023-11-23T02:55:12.688Z,102253.69
2023-11-23T02:57:39.913Z,102248.06
2023-11-23T03:00:09.094Z,102247.69
2023-11-23T03:02:36.091Z,102248.16
2023-11-23T03:05:02.944Z,102251.25
2023-11-23T03:07:29.701Z,102247.38
2023-11-23T03:09:56.461Z,102251.44
2023-11-23T03:12:23.345Z,102247.47
2023-11-23T03:14:50.387Z,102243.59
2023-11-23T03:17:20.358Z,102241.53
2023-11-23T03:19:47.207Z,102238.06
2023-11-23T03:22:14.457Z,102230.00
2023-11-23T03:24:41.242Z,102230.72
2023-11-23T03:27:10.804Z,102238.53
2023-11-23T03:29:39.019Z,102237.53
2023-11-23T03:32:05.924Z,102234.78
2023-11-23T03:34:33.090Z,102238.13
2023-11-23T03:36:59.944Z,102243.41
2023-11-23T03:39:27.370Z,102234.78
2023-11-23T03:41:54.188Z,102230.34
2023-11-23T03:44:21.401Z,102230.22
2023-11-23T03:46:48.180Z,102226.75
2023-11-23T03:49:14.926Z,102231.63
2023-11-23T03:51:42.618Z,102229.69
2023-11-23T03:54:09.967Z,102222.38
2023-11-23T03:56:39.275Z,102216.25
2023-11-23T03:59:06.550Z,102225.97
2023-11-23T04:01:33.423Z,102211.94
2023-11-23T04:04:00.323Z,102215.53
2023-11-23T04:06:28.415Z,102222.38
2023-11-23T04:08:55.323Z,102216.13
2023-11-23T04:11:24.734Z,102222.09
2023-11-23T04:13:51.723Z,102214.88
2023-11-23T04:16:18.588Z,102215.72
2023-11-23T04:18:46.210Z,102209.59
2023-11-23T04:21:13.381Z,102215.44
2023-11-23T04:23:40.315Z,102215.44
2023-11-23T04:26:07.254Z,102226.13
2023-11-23T04:28:35.885Z,102217.66
2023-11-23T04:31:04.632Z,102208.06
2023-11-23T04:33:31.758Z,102216.94
2023-11-23T04:35:58.898Z,102215.41
2023-11-23T04:38:25.842Z,102208.56
2023-11-23T04:40:52.644Z,102205.94
2023-11-23T04:43:19.456Z,102208.72
2023-11-23T04:45:46.424Z,102206.19
2023-11-23T04:48:13.351Z,102200.06
2023-11-23T04:50:41.020Z,102190.63
2023-11-23T04:53:07.908Z,102192.44
2023-11-23T04:55:34.890Z,102195.06
2023-11-23T04:58:01.657Z,102192.66
2023-11-23T05:00:28.767Z,102181.28
2023-11-23T05:02:55.985Z,102189.19
2023-11-23T05:05:22.888Z,102192.00
2023-11-23T05:07:49.672Z,102188.50
2023-11-23T05:10:17.499Z,102183.34
2023-11-23T05:12:44.462Z,102197.38
2023-11-23T05:15:11.646Z,102201.81
2023-11-23T05:17:39.018Z,102208.91
2023-11-23T05:20:06.141Z,102195.84
2023-11-23T05:22:32.954Z,102207.38
2023-11-23T05:24:59.734Z,102206.66
2023-11-23T05:27:26.570Z,102204.84
2023-11-23T05:29:53.453Z,102199.69
2023-11-23T05:32:20.302Z,102199.84
2023-11-23T05:34:47.114Z,102187.84
2023-11-23T05:37:14.039Z,102190.50
2023-11-23T05:39:43.733Z,102196.88
2023-11-23T05:42:11.507Z,102187.28
2023-11-23T05:44:38.812Z,102185.47
2023-11-23T05:47:05.841Z,102179.50
2023-11-23T05:49:32.766Z,102187.28
2023-11-23T05:51:59.531Z,102189.06
2023-11-23T05:54:26.483Z,102195.31
2023-11-23T05:56:53.296Z,102197.16
2023-11-23T05:59:20.273Z,102194.63
2023-11-23T06:01:47.286Z,102191.25
2023-11-23T06:04:14.321Z,102199.91
2023-11-23T06:06:41.290Z,102202.66
2023-11-23T06:09:10.768Z,102196.41
2023-11-23T06:11:37.752Z,102204.22
2023-11-23T06:14:04.915Z,102193.50
2023-11-23T06:16:31.737Z,102197.84
2023-11-23T06:18:59.322Z,102192.56
2023-11-23T06:21:32.161Z,102199.41
2023-11-23T06:23:59.780Z,102202.72
2023-11-23T06:26:27.040Z,102206.09
2023-11-23T06:28:53.822Z,102199.00
2023-11-23T06:31:20.709Z,102197.66
2023-11-23T06:33:47.603Z,102191.38
2023-11-23T06:36:14.411Z,102194.75
2023-11-23T06:38:43.281Z,102194.75
2023-11-23T06:41:20.312Z,102190.31
2023-11-23T06:43:48.356Z,102187.56
2023-11-23T06:46:15.708Z,102191.16
2023-11-23T06:48:45.821Z,102181.66
2023-11-23T06:51:13.071Z,102183.34
2023-11-23T06:53:48.536Z,102184.06
2023-11-23T06:56:16.123Z,102176.84
2023-11-23T06:58:49.779Z,102168.34
2023-11-23T07:01:17.235Z,102182.06
2023-11-23T07:03:44.775Z,102176.94
2023-11-23T07:06:12.465Z,102177.75
2023-11-23T07:08:43.543Z,102183.75
2023-11-23T07:11:14.437Z,102177.75
2023-11-23T07:13:41.238Z,102185.53
2023-11-23T07:16:10.587Z,102182.66
2023-11-23T07:18:41.350Z,102178.91
2023-11-23T07:21:08.369Z,102179.63
2023-11-23T07:23:37.883Z,102182.00
2023-11-23T07:26:05.059Z,102170.94
2023-11-23T07:28:33.246Z,102169.25
2023-11-23T07:31:00.287Z,102155.09
2023-11-23T07:33:31.123Z,102153.97
2023-11-23T07:35:58.140Z,102148.56
2023-11-23T07:38:24.980Z,102137.06
2023-11-23T07:40:51.762Z,102149.97
2023-11-23T07:43:18.633Z,102147.22
2023-11-23T07:45:45.447Z,102133.91
2023-11-23T07:48:15.566Z,102146.69
2023-11-23T07:50:42.606Z,102150.72
2023-11-23T07:53:09.671Z,102155.19
2023-11-23T07:55:36.514Z,102162.81
2023-11-23T07:58:03.476Z,102161.59
2023-11-23T08:00:30.364Z,102155.94
2023-11-23T08:02:57.378Z,102157.31
2023-11-23T08:05:25.133Z,102149.97
2023-11-23T08:07:52.496Z,102151.34
2023-11-23T08:10:19.595Z,102164.31
2023-11-23T08:12:46.412Z,102163.19
2023-11-23T08:15:14.557Z,102174.47
2023-11-23T08:17:51.159Z,102163.78
2023-11-23T08:20:28.364Z,102172.28
2023-11-23T08:22:55.685Z,102164.06
2023-11-23T08:25:22.566Z,102167.97
2023-11-23T08:27:49.399Z,102172.03
2023-11-23T08:30:17.059Z,102178.44
2023-11-23T08:32:44.054Z,102165.56
2023-11-23T08:35:11.239Z,102177.66
2023-11-23T08:37:38.739Z,102172.25
2023-11-23T08:40:07.024Z,102177.13
2023-11-23T08:42:34.836Z,102173.09
2023-11-23T08:45:03.087Z,102192.97
2023-11-23T08:47:30.766Z,102187.44
2023-11-23T08:49:57.498Z,102185.22
2023-11-23T08:52:24.362Z,102187.56
2023-11-23T08:54:51.309Z,102190.78
2023-11-23T08:57:18.228Z,102188.56
2023-11-23T08:59:45.011Z,102199.97
2023-11-23T09:02:19.771Z,102193.59
2023-11-23T09:04:48.054Z,102205.56
2023-11-23T09:07:14.984Z,102208.91
2023-11-23T09:09:41.788Z,102208.63
2023-11-23T09:12:08.889Z,102210.00
2023-11-23T09:14:46.139Z,102206.94
2023-11-23T09:17:16.097Z,102195.94
2023-11-23T09:19:43.625Z,102197.34
2023-11-23T09:22:12.168Z,102218.09
2023-11-23T09:24:40.213Z,102217.66
2023-11-23T09:27:11.383Z,102221.00
2023-11-23T09:29:38.392Z,102218.34
2023-11-23T09:32:06.718Z,102222.97
2023-11-23T09:34:33.765Z,102232.28
2023-11-23T09:37:00.838Z,102236.44
2023-11-23T09:39:27.914Z,102237.72
2023-11-23T09:41:56.040Z,102238.53
2023-11-23T09:44:23.122Z,102226.56
2023-11-23T09:46:50.960Z,102230.75
2023-11-23T09:49:20.102Z,102235.50
2023-11-23T09:51:49.289Z,102234.81
2023-11-23T09:54:20.159Z,102235.78
2023-11-23T09:56:47.342Z,102238.41
2023-11-23T09:59:14.389Z,102229.66
2023-11-23T10:01:45.310Z,102226.28
2023-11-23T10:04:13.295Z,102246.63
2023-11-23T10:06:41.445Z,102252.91
2023-11-23T10:09:08.996Z,102252.31
2023-11-23T10:11:39.007Z,102253.28
2023-11-23T10:14:05.745Z,102254.00
2023-11-23T10:16:35.680Z,102250.94
2023-11-23T10:19:02.510Z,102234.66
2023-11-23T10:21:32.567Z,102269.75
2023-11-23T10:24:08.979Z,102278.09
2023-11-23T10:26:36.304Z,102274.75
2023-11-23T10:29:03.228Z,102267.09
2023-11-23T10:31:34.513Z,102278.63
2023-11-23T10:34:02.322Z,102281.41
2023-11-23T10:36:29.386Z,102276.00
2023-11-23T10:39:01.315Z,102259.41
2023-11-23T10:41:28.207Z,102254.00
2023-11-23T10:43:55.110Z,102246.19
2023-11-23T10:46:22.433Z,102236.56
2023-11-23T10:48:50.513Z,102246.06
2023-11-23T10:51:17.555Z,102230.06
2023-11-23T10:53:44.481Z,102213.78
2023-11-23T10:56:15.658Z,102193.88
2023-11-23T10:58:50.383Z,102187.44
2023-11-23T11:01:23.176Z,102188.59
2023-11-23T11:03:51.133Z,102186.75
2023-11-23T11:06:19.374Z,102168.94
2023-11-23T11:08:56.682Z,102152.75
2023-11-23T11:11:24.253Z,102168.81
2023-11-23T11:13:59.717Z,102150.81
2023-11-23T11:16:35.057Z,102138.84
2023-11-23T11:19:08.912Z,102141.91
2023-11-23T11:21:45.543Z,102139.56
2023-11-23T11:24:22.986Z,102135.66
2023-11-23T11:26:49.987Z,102140.09
2023-11-23T11:29:20.034Z,102147.75
2023-11-23T11:31:51.079Z,102136.19
2023-11-23T11:34:19.261Z,102131.88
2023-11-23T11:36:47.804Z,102123.34
2023-11-23T11:39:16.124Z,102130.19
2023-11-23T11:41:43.444Z,102135.06
2023-11-23T11:44:11.957Z,102131.41
2023-11-23T11:46:40.215Z,102116.66
2023-11-23T11:49:08.306Z,102117.06
2023-11-23T11:51:46.271Z,102117.59
2023-11-23T11:54:13.073Z,102101.88
2023-11-23T11:56:40.527Z,102095.44
2023-11-23T11:59:08.649Z,102081.78
2023-11-23T12:01:42.967Z,102064.94
2023-11-23T12:04:09.990Z,102060.34
2023-11-23T12:06:36.889Z,102051.56
2023-11-23T12:09:03.934Z,102046.09
2023-11-23T12:11:38.036Z,102052.63
2023-11-23T12:14:09.707Z,102048.56
2023-11-23T12:16:37.145Z,102039.53
2023-11-23T12:19:16.234Z,102048.13
2023-11-23T12:21:50.988Z,102025.97
2023-11-23T12:24:21.167Z,102021.53
2023-11-23T12:26:50.607Z,102019.25
2023-11-23T12:29:21.139Z,102005.72
2023-11-23T12:31:53.270Z,102011.00
2023-11-23T12:34:24.762Z,102005.56
2023-11-23T12:36:51.817Z,102013.38
2023-11-23T12:39:18.797Z,101991.03
2023-11-23T12:41:55.206Z,101988.09
2023-11-23T12:44:22.831Z,101991.59
2023-11-23T12:46:50.553Z,101994.25
2023-11-23T12:49:17.635Z,101985.16
2023-11-23T12:51:50.997Z,101967.13
2023-11-23T12:54:17.967Z,101961.69
2023-11-23T12:56:45.015Z,101960.25
2023-11-23T12:59:11.825Z,101966.25
2023-11-23T13:01:41.882Z,101961.91
2023-11-23T13:04:10.171Z,101948.69
2023-11-23T13:06:37.775Z,101947.25
2023-11-23T13:09:05.458Z,101947.38
2023-11-23T13:11:46.158Z,101948.06
2023-11-23T13:14:12.940Z,101948.72
2023-11-23T13:16:39.829Z,101932.69
2023-11-23T13:19:17.124Z,101929.72
2023-11-23T13:21:54.000Z,101935.03
2023-11-23T13:24:22.295Z,101937.38
2023-11-23T13:26:50.900Z,101940.88
2023-11-23T13:29:17.947Z,101931.78
2023-11-23T13:31:45.415Z,101932.59
2023-11-23T13:34:13.357Z,101930.94
2023-11-23T13:36:40.271Z,101930.28
2023-11-23T13:39:09.826Z,101929.13
2023-11-23T13:41:39.705Z,101922.00
2023-11-23T13:44:06.478Z,101919.22
2023-11-23T13:46:33.941Z,101910.09
2023-11-23T13:49:01.411Z,101902.16
2023-11-23T13:51:31.201Z,101900.34
2023-11-23T13:53:59.212Z,101902.97
2023-11-23T13:56:26.854Z,101883.59
2023-11-23T13:58:53.856Z,101883.78
2023-11-23T14:01:20.761Z,101886.94
2023-11-23T14:03:47.803Z,101873.34
2023-11-23T14:06:17.825Z,101876.00
2023-11-23T14:08:55.950Z,101890.09
2023-11-23T14:11:22.708Z,101881.03
2023-11-23T14:13:56.479Z,101870.72
2023-11-23T14:16:23.687Z,101877.34
2023-11-23T14:18:55.726Z,101876.56
2023-11-23T14:21:22.836Z,101881.69
2023-11-23T14:23:51.292Z,101881.84
2023-11-23T14:26:21.131Z,101884.19
2023-11-23T14:28:50.855Z,101884.88
2023-11-23T14:31:23.916Z,101867.44
2023-11-23T14:33:56.421Z,101878.19
2023-11-23T14:36:23.634Z,101872.59
2023-11-23T14:38:56.276Z,101871.91
2023-11-23T14:41:24.295Z,101880.53
2023-11-23T14:43:51.298Z,101877.53
2023-11-23T14:46:19.015Z,101875.72
2023-11-23T14:48:45.882Z,101886.16
2023-11-23T14:51:13.102Z,101872.06
2023-11-23T14:53:40.244Z,101874.69
2023-11-23T14:56:09.424Z,101887.16
2023-11-23T14:58:36.264Z,101879.84
2023-11-23T15:01:03.188Z,101875.72
2023-11-23T15:03:30.385Z,101876.56
2023-11-23T15:05:57.416Z,101885.47
2023-11-23T15:08:24.418Z,101888.28
2023-11-23T15:10:51.683Z,101889.13
2023-11-23T15:13:25.910Z,101882.97
2023-11-23T15:15:57.801Z,101881.63
2023-11-23T15:18:25.088Z,101878.28
2023-11-23T15:20:51.959Z,101876.63
2023-11-23T15:23:21.010Z,101859.75
2023-11-23T15:25:47.868Z,101858.91
2023-11-23T15:28:14.727Z,101861.25
2023-11-23T15:30:42.152Z,101861.41
2023-11-23T15:33:11.729Z,101866.03
2023-11-23T15:35:43.103Z,101853.94
2023-11-23T15:38:10.831Z,101840.69
2023-11-23T15:40:37.685Z,101845.28
2023-11-23T15:43:04.635Z,101847.94
2023-11-23T15:45:32.800Z,101843.81
2023-11-23T15:47:59.781Z,101848.59
2023-11-23T15:50:29.342Z,101840.78
2023-11-23T15:52:57.915Z,101828.50
2023-11-23T15:55:25.598Z,101832.16
2023-11-23T15:57:52.611Z,101830.47
2023-11-23T16:00:25.470Z,101822.53
2023-11-23T16:02:54.383Z,101813.78
2023-11-23T16:05:27.732Z,101816.41
2023-11-23T16:07:55.252Z,101795.88
2023-11-23T16:10:22.387Z,101803.31
2023-11-23T16:12:49.795Z,101795.38
2023-11-23T16:15:17.303Z,101797.50
2023-11-23T16:17:44.532Z,101800.59
2023-11-23T16:20:16.684Z,101803.72
2023-11-23T16:22:45.924Z,101801.41
2023-11-23T16:25:12.805Z,101805.16
2023-11-23T16:27:40.086Z,101800.34
2023-11-23T16:30:07.777Z,101797.88
2023-11-23T16:32:34.699Z,101800.66
2023-11-23T16:35:02.630Z,101800.81
2023-11-23T16:37:29.618Z,101798.47
2023-11-23T16:39:56.517Z,101795.31
2023-11-23T16:42:23.319Z,101796.44
2023-11-23T16:44:50.253Z,101798.56
2023-11-23T16:47:16.988Z,101799.66
2023-11-23T16:49:47.414Z,101797.47
2023-11-23T16:52:14.308Z,101798.63
2023-11-23T16:54:41.110Z,101797.09
2023-11-23T16:57:09.394Z,101799.88
2023-11-23T16:59:36.161Z,101804.53
2023-11-23T17:02:03.061Z,101796.56
2023-11-23T17:04:29.896Z,101780.84
2023-11-23T17:06:57.103Z,101777.97
2023-11-23T17:09:25.855Z,101781.63
2023-11-23T17:11:54.167Z,101783.72
2023-11-23T17:14:23.871Z,101792.63
2023-11-23T17:16:52.917Z,101790.16
2023-11-23T17:19:19.805Z,101788.63
2023-11-23T17:21:48.845Z,101781.84
2023-11-23T17:24:16.602Z,101771.25
2023-11-23T17:26:43.732Z,101773.22
2023-11-23T17:29:13.512Z,101773.53
2023-11-23T17:31:42.751Z,101779.66
2023-11-23T17:34:09.975Z,101788.03
2023-11-23T17:36:36.962Z,101791.81
2023-11-23T17:39:04.251Z,101786.13
2023-11-23T17:41:38.013Z,101796.56
2023-11-23T17:44:05.053Z,101792.41
2023-11-23T17:46:31.854Z,101796.84
2023-11-23T17:48:58.609Z,101798.97
2023-11-23T17:51:29.588Z,101811.09
2023-11-23T17:53:56.490Z,101804.97
2023-11-23T17:56:23.285Z,101808.19
2023-11-23T17:58:50.127Z,101815.31
2023-11-23T18:01:18.458Z,101812.13
2023-11-23T18:03:46.108Z,101819.50
2023-11-23T18:06:12.991Z,101817.88
2023-11-23T18:08:40.421Z,101821.94
2023-11-23T18:11:07.606Z,101830.97
2023-11-23T18:13:35.116Z,101827.38
2023-11-23T18:16:03.326Z,101839.63
2023-11-23T18:18:30.204Z,101847.25
2023-11-23T18:20:58.117Z,101843.94
2023-11-23T18:23:25.576Z,101846.56
2023-11-23T18:25:52.503Z,101839.44
2023-11-23T18:28:21.133Z,101840.28
2023-11-23T18:30:54.891Z,101830.53
2023-11-23T18:33:22.866Z,101819.44
2023-11-23T18:35:49.778Z,101821.38
2023-11-23T18:38:16.957Z,101805.69
2023-11-23T18:40:44.014Z,101800.66
2023-11-23T18:43:12.049Z,101797.81
2023-11-23T18:45:41.890Z,101797.63
2023-11-23T18:48:08.819Z,101791.38
2023-11-23T18:50:35.599Z,101787.75
2023-11-23T18:53:03.251Z,101771.06
2023-11-23T18:55:30.376Z,101756.88
2023-11-23T18:57:57.616Z,101772.56
2023-11-23T19:00:24.965Z,101781.63
2023-11-23T19:02:54.895Z,101781.50
2023-11-23T19:05:22.124Z,101788.72
2023-11-23T19:07:49.072Z,101784.28
2023-11-23T19:10:17.225Z,101782.75
2023-11-23T19:12:48.981Z,101775.66
2023-11-23T19:15:17.760Z,101764.41
2023-11-23T19:17:44.657Z,101762.59
2023-11-23T19:20:12.060Z,101754.81
2023-11-23T19:22:39.026Z,101757.91
2023-11-23T19:25:06.834Z,101771.94
2023-11-23T19:27:34.061Z,101778.22
2023-11-23T19:30:01.075Z,101782.53
2023-11-23T19:32:28.091Z,101775.97
2023-11-23T19:34:55.481Z,101774.44
2023-11-23T19:37:22.761Z,101769.31
2023-11-23T19:39:54.830Z,101773.63
2023-11-23T19:42:25.992Z,101776.94
2023-11-23T19:44:53.725Z,101767.31
2023-11-23T19:47:21.075Z,101767.19
2023-11-23T19:49:48.669Z,101760.94
2023-11-23T19:52:23.939Z,101749.38
2023-11-23T19:54:55.787Z,101753.84
2023-11-23T19:57:22.818Z,101747.00
2023-11-23T19:59:49.728Z,101747.00
2023-11-23T20:02:16.710Z,101741.19
2023-11-23T20:04:43.738Z,101738.56
2023-11-23T20:07:11.278Z,101730.50
2023-11-23T20:09:38.487Z,101730.63
2023-11-23T20:12:05.741Z,101739.41
2023-11-23T20:14:32.914Z,101741.34
2023-11-23T20:17:01.556Z,101743.31
2023-11-23T20:19:29.924Z,101746.94
2023-11-23T20:21:57.051Z,101754.16
2023-11-23T20:24:25.724Z,101750.16
2023-11-23T20:26:52.798Z,101757.94
2023-11-23T20:29:19.988Z,101762.09
2023-11-23T20:31:52.342Z,101759.44
2023-11-23T20:34:19.904Z,101761.44
2023-11-23T20:36:46.939Z,101763.38
2023-11-23T20:39:16.661Z,101760.03
2023-11-23T20:41:44.146Z,101762.69
2023-11-23T20:44:11.042Z,101761.72
2023-11-23T20:46:38.742Z,101761.56
2023-11-23T20:49:05.752Z,101770.34
2023-11-23T20:51:36.466Z,101768.53
2023-11-23T20:54:05.226Z,101753.78
2023-11-23T20:56:32.680Z,101760.03
2023-11-23T20:59:03.176Z,101761.56
2023-11-23T21:01:40.176Z,101745.84
2023-11-23T21:04:07.381Z,101742.22
2023-11-23T21:06:34.386Z,101757.13
2023-11-23T21:09:03.845Z,101752.66
2023-11-23T21:11:33.402Z,101750.84
2023-11-23T21:14:00.205Z,101743.91
2023-11-23T21:16:27.506Z,101743.59
2023-11-23T21:18:55.513Z,101744.16
2023-11-23T21:21:22.438Z,101729.09
2023-11-23T21:23:49.604Z,101727.84
2023-11-23T21:26:18.828Z,101731.16
2023-11-23T21:28:47.109Z,101724.88
2023-11-23T21:31:13.970Z,101725.72
2023-11-23T21:33:42.142Z,101723.09
2023-11-23T21:36:09.830Z,101728.38
2023-11-23T21:38:47.468Z,101723.09
2023-11-23T21:41:15.990Z,101715.47
2023-11-23T21:43:43.272Z,101716.97
2023-11-23T21:46:12.856Z,101715.97
2023-11-23T21:48:54.196Z,101709.56
2023-11-23T21:51:25.219Z,101719.16
2023-11-23T21:53:52.241Z,101714.56
2023-11-23T21:56:19.182Z,101733.59
2023-11-23T21:58:49.461Z,101734.44
2023-11-23T22:01:16.890Z,101730.94
2023-11-23T22:03:44.315Z,101727.19
2023-11-23T22:06:11.531Z,101731.31
2023-11-23T22:08:40.543Z,101732.84
2023-11-23T22:11:09.967Z,101730.72
2023-11-23T22:13:39.229Z,101736.69
2023-11-23T22:16:06.067Z,101742.53
2023-11-23T22:18:33.023Z,101758.22
2023-11-23T22:20:59.880Z,101759.75
2023-11-23T22:23:27.694Z,101771.16
2023-11-23T22:25:55.369Z,101769.34
2023-11-23T22:28:23.144Z,101780.59
2023-11-23T22:30:50.459Z,101791.19
2023-11-23T22:33:18.135Z,101786.06
2023-11-23T22:35:45.071Z,101796.78
2023-11-23T22:38:13.041Z,101790.81
2023-11-23T22:40:40.307Z,101793.63
2023-11-23T22:43:07.277Z,101796.41
2023-11-23T22:45:34.254Z,101784.00
2023-11-23T22:48:01.234Z,101778.19
2023-11-23T22:50:28.455Z,101789.59
2023-11-23T22:52:55.344Z,101793.06
2023-11-23T22:55:22.115Z,101788.09
2023-11-23T22:57:49.339Z,101772.22
2023-11-23T23:00:16.722Z,101780.00
2023-11-23T23:02:43.615Z,101785.31
2023-11-23T23:05:10.434Z,101785.97
2023-11-23T23:07:37.605Z,101789.59
2023-11-23T23:10:04.551Z,101781.66
2023-11-23T23:12:31.337Z,101776.34
2023-11-23T23:14:58.208Z,101786.13
2023-11-23T23:17:25.768Z,101787.25
2023-11-23T23:19:52.700Z,101788.22
2023-11-23T23:22:26.516Z,101784.91
2023-11-23T23:24:55.875Z,101794.34
2023-11-23T23:27:23.119Z,101791.84
2023-11-23T23:29:49.936Z,101805.91
2023-11-23T23:32:18.662Z,101806.91
2023-11-23T23:34:45.631Z,101804.41
2023-11-23T23:37:12.513Z,101797.56
2023-11-23T23:39:39.309Z,101801.38
2023-11-23T23:42:06.133Z,101800.66
2023-11-23T23:44:34.108Z,101779.69
2023-11-23T23:47:01.028Z,101778.28
2023-11-23T23:49:28.858Z,101792.94
2023-11-23T23:51:55.650Z,101789.31
2023-11-23T23:54:22.561Z,101788.94
2023-11-23T23:56:49.307Z,101783.63
2023-11-23T23:59:16.051Z,101774.34
